createdAt,value
2022-08-01T00:00:06.825Z,90.05
2022-08-01T00:01:06.101Z,89.34
2022-08-01T00:02:06.335Z,89.25
2022-08-01T00:03:06.090Z,89.85
2022-08-01T00:04:06.076Z,90.05
2022-08-01T00:05:06.101Z,90.15
2022-08-01T00:06:06.093Z,89.54
2022-08-01T00:07:06.064Z,89.75
2022-08-01T00:08:06.051Z,89.34
2022-08-01T00:09:06.061Z,90.15
2022-08-01T00:10:06.176Z,90.05
2022-08-01T00:11:06.034Z,90.05
2022-08-01T00:12:06.041Z,89.95
2022-08-01T00:13:06.008Z,90.05
2022-08-01T00:14:06.023Z,90.05
2022-08-01T00:15:06.022Z,89.65
2022-08-01T00:16:06.048Z,90.25
2022-08-01T00:17:07.608Z,89.85
2022-08-01T00:18:06.998Z,89.85
2022-08-01T00:19:05.990Z,90.05
2022-08-01T00:20:06.372Z,89.25
2022-08-01T00:21:05.999Z,89.45
2022-08-01T00:22:07.331Z,89.65
2022-08-01T00:23:05.956Z,89.34
2022-08-01T00:24:05.931Z,89.75
2022-08-01T00:25:05.946Z,89.75
2022-08-01T00:26:05.938Z,89.59
2022-08-01T00:27:05.936Z,89.54
2022-08-01T00:28:05.959Z,89.45
2022-08-01T00:29:11.506Z,89.85
2022-08-01T00:30:14.012Z,90.15
2022-08-01T00:31:06.891Z,90.39
2022-08-01T00:32:06.111Z,90.99
2022-08-01T00:33:05.903Z,90.69
2022-08-01T00:34:05.886Z,91.50
2022-08-01T00:35:05.889Z,91.30
2022-08-01T00:36:05.900Z,91.39
2022-08-01T00:37:05.862Z,92.04
2022-08-01T00:38:05.845Z,91.89
2022-08-01T00:39:05.831Z,91.69
2022-08-01T00:40:05.823Z,91.69
2022-08-01T00:41:05.879Z,91.19
2022-08-01T00:42:06.037Z,91.30
2022-08-01T00:43:05.833Z,91.19
2022-08-01T00:44:05.777Z,91.50
2022-08-01T00:45:05.813Z,91.30
2022-08-01T00:46:05.824Z,91.39
2022-08-01T00:47:05.773Z,91.69
2022-08-01T00:48:05.778Z,91.39
2022-08-01T00:49:05.807Z,91.39
2022-08-01T00:50:05.755Z,91.39
2022-08-01T00:51:06.344Z,91.39
2022-08-01T00:52:06.739Z,90.99
2022-08-01T00:53:05.740Z,90.99
2022-08-01T00:54:05.736Z,91.50
2022-08-01T00:55:05.716Z,91.30
2022-08-01T00:56:05.743Z,90.89
2022-08-01T00:57:10.207Z,90.79
2022-08-01T00:58:06.747Z,90.89
2022-08-01T00:59:06.680Z,90.89
2022-08-01T01:00:06.338Z,90.99
2022-08-01T01:01:06.522Z,90.89
2022-08-01T01:02:14.531Z,90.79
2022-08-01T01:03:06.637Z,91.19
2022-08-01T01:04:08.641Z,91.19
2022-08-01T01:05:05.680Z,90.99
2022-08-01T01:06:05.665Z,91.39
2022-08-01T01:07:05.635Z,91.34
2022-08-01T01:08:05.621Z,91.60
2022-08-01T01:09:06.355Z,92.10
2022-08-01T01:10:05.620Z,91.69
2022-08-01T01:11:05.598Z,91.89
2022-08-01T01:12:05.846Z,91.69
2022-08-01T01:13:05.567Z,92.10
2022-08-01T01:14:05.562Z,92.14
2022-08-01T01:15:06.518Z,93.15
2022-08-01T01:16:05.589Z,93.24
2022-08-01T01:17:05.539Z,92.84
2022-08-01T01:18:05.516Z,93.44
2022-08-01T01:19:05.523Z,92.94
2022-08-01T01:20:05.510Z,93.74
2022-08-01T01:21:05.512Z,93.59
2022-08-01T01:22:06.702Z,93.49
2022-08-01T01:23:05.528Z,93.44
2022-08-01T01:24:05.481Z,93.99
2022-08-01T01:25:06.357Z,93.55
2022-08-01T01:26:05.459Z,93.19
2022-08-01T01:27:05.457Z,93.09
2022-08-01T01:28:05.551Z,93.69
2022-08-01T01:29:06.376Z,93.85
2022-08-01T01:30:05.471Z,93.69
2022-08-01T01:31:05.432Z,93.19
2022-08-01T01:32:05.670Z,94.15
2022-08-01T01:33:06.420Z,94.49
2022-08-01T01:34:05.409Z,94.29
2022-08-01T01:35:06.367Z,94.29
2022-08-01T01:36:07.502Z,94.09
2022-08-01T01:37:06.434Z,94.70
2022-08-01T01:38:05.403Z,94.59
2022-08-01T01:39:05.365Z,95.00
2022-08-01T01:40:05.380Z,94.79
2022-08-01T01:41:05.359Z,94.49
2022-08-01T01:42:05.651Z,94.70
2022-08-01T01:43:05.349Z,95.10
2022-08-01T01:44:05.370Z,94.49
2022-08-01T02:02:47.460Z,95.44
2022-08-01T02:03:47.365Z,95.24
2022-08-01T02:04:47.411Z,95.64
2022-08-01T02:05:48.529Z,95.54
2022-08-01T02:06:48.541Z,95.64
2022-08-01T02:07:48.625Z,95.04
2022-08-01T02:08:48.463Z,95.14
2022-08-01T02:09:48.477Z,95.34
2022-08-01T02:10:48.494Z,95.24
2022-08-01T02:12:07.635Z,95.34
2022-08-01T02:12:49.438Z,95.39
2022-08-01T02:14:20.470Z,95.69
2022-08-01T02:14:48.543Z,95.79
2022-08-01T02:15:59.400Z,95.99
2022-08-01T02:16:49.444Z,95.99
2022-08-01T02:17:50.076Z,96.19
2022-08-01T02:18:48.436Z,96.09
2022-08-01T02:19:48.484Z,96.19
2022-08-01T02:20:48.518Z,96.30
2022-08-01T02:21:48.978Z,96.09
2022-08-01T02:22:49.093Z,96.39
2022-08-01T02:23:48.348Z,96.30
2022-08-01T02:24:48.352Z,96.19
2022-08-01T02:26:10.470Z,96.19
2022-08-01T02:26:49.329Z,96.44
2022-08-01T02:27:49.346Z,96.19
2022-08-01T02:28:48.337Z,96.24
2022-08-01T02:29:48.313Z,96.19
2022-08-01T02:30:48.354Z,96.09
2022-08-01T02:31:48.520Z,96.14
2022-08-01T02:32:48.303Z,96.30
2022-08-01T02:33:48.284Z,96.24
2022-08-01T02:34:48.276Z,96.44
2022-08-01T02:36:30.585Z,96.44
2022-08-01T02:36:49.289Z,96.74
2022-08-01T02:37:48.243Z,96.84
2022-08-01T02:38:48.247Z,96.48
2022-08-01T02:39:48.229Z,96.44
2022-08-01T02:40:49.219Z,96.98
2022-08-01T02:41:48.240Z,96.98
2022-08-01T02:42:48.310Z,96.89
2022-08-01T02:43:53.227Z,97.19
2022-08-01T02:44:50.124Z,97.09
2022-08-01T02:45:48.193Z,97.49
2022-08-01T02:46:48.991Z,97.29
2022-08-01T02:47:49.102Z,97.19
2022-08-01T02:48:48.203Z,97.29
2022-08-01T02:49:53.263Z,97.19
2022-08-01T02:50:49.207Z,97.69
2022-08-01T02:51:48.191Z,97.49
2022-08-01T02:52:48.161Z,97.89
2022-08-01T02:53:48.134Z,98.19
2022-08-01T02:54:48.142Z,98.04
2022-08-01T02:55:48.124Z,98.24
2022-08-01T02:56:48.127Z,98.34
2022-08-01T02:57:52.397Z,97.79
2022-08-01T02:58:49.124Z,97.99
2022-08-01T02:59:48.116Z,97.79
2022-08-01T03:00:48.573Z,97.79
2022-08-01T03:01:48.150Z,98.30
2022-08-01T03:02:48.084Z,98.19
2022-08-01T03:03:48.097Z,97.39
2022-08-01T03:04:48.144Z,97.29
2022-08-01T03:05:48.067Z,97.69
2022-08-01T03:06:48.067Z,97.39
2022-08-01T03:07:48.630Z,97.19
2022-08-01T03:08:48.067Z,97.39
2022-08-01T03:09:48.016Z,97.34
2022-08-01T03:10:48.045Z,96.94
2022-08-01T03:11:48.000Z,97.09
2022-08-01T03:12:48.223Z,96.94
2022-08-01T03:13:48.002Z,96.74
2022-08-01T03:14:47.999Z,96.64
2022-08-01T03:15:47.982Z,96.54
2022-08-01T03:16:47.955Z,96.34
2022-08-01T03:17:47.953Z,96.04
2022-08-01T03:18:47.934Z,96.04
2022-08-01T03:19:47.958Z,96.04
2022-08-01T03:20:47.948Z,95.94
2022-08-01T03:21:47.923Z,96.09
2022-08-01T03:22:47.917Z,96.19
2022-08-01T03:24:19.832Z,96.14
2022-08-01T03:24:47.898Z,96.24
2022-08-01T03:26:19.829Z,96.39
2022-08-01T03:26:47.890Z,95.79
2022-08-01T03:27:47.914Z,95.59
2022-08-01T03:28:47.870Z,96.09
2022-08-01T03:29:47.858Z,96.19
2022-08-01T03:30:47.882Z,96.34
2022-08-01T03:31:47.841Z,96.34
2022-08-01T03:32:47.848Z,96.24
2022-08-01T03:33:47.838Z,96.74
2022-08-01T03:34:47.830Z,96.34
2022-08-01T03:35:47.826Z,96.54
2022-08-01T03:36:47.811Z,96.74
2022-08-01T03:38:14.308Z,96.30
2022-08-01T03:38:49.796Z,96.09
2022-08-01T03:39:47.778Z,95.99
2022-08-01T03:40:47.774Z,96.64
2022-08-01T03:41:52.558Z,96.89
2022-08-01T03:42:49.761Z,97.00
2022-08-01T03:43:47.752Z,97.09
2022-08-01T03:44:47.748Z,96.89
2022-08-01T03:45:47.745Z,97.09
2022-08-01T04:01:32.930Z,98.95
2022-08-01T04:02:32.726Z,99.15
2022-08-01T04:03:32.719Z,98.75
2022-08-01T04:04:33.726Z,98.85
2022-08-01T04:05:32.706Z,99.05
2022-08-01T04:06:32.693Z,99.55
2022-08-01T04:07:33.831Z,99.11
2022-08-01T04:08:33.836Z,98.95
2022-08-01T04:09:33.806Z,99.11
2022-08-01T04:10:33.900Z,99.31
2022-08-01T04:11:33.793Z,99.31
2022-08-01T04:12:33.798Z,99.15
2022-08-01T04:13:37.329Z,99.05
2022-08-01T04:14:33.778Z,99.01
2022-08-01T04:15:33.752Z,99.26
2022-08-01T04:16:33.789Z,99.15
2022-08-01T04:17:33.747Z,99.11
2022-08-01T04:18:33.739Z,99.35
2022-08-01T04:19:33.721Z,98.95
2022-08-01T04:20:33.777Z,99.05
2022-08-01T04:21:33.729Z,99.05
2022-08-01T04:22:37.479Z,99.76
2022-08-01T04:23:33.699Z,99.51
2022-08-01T04:24:33.763Z,99.26
2022-08-01T04:25:33.693Z,99.71
2022-08-01T04:26:33.707Z,99.91
2022-08-01T04:27:50.580Z,99.55
2022-08-01T04:28:34.667Z,99.76
2022-08-01T04:29:33.713Z,99.26
2022-08-01T04:30:33.652Z,99.26
2022-08-01T04:31:33.652Z,99.76
2022-08-01T04:32:33.633Z,99.96
2022-08-01T04:33:33.608Z,99.99
2022-08-01T04:34:33.624Z,99.80
2022-08-01T04:36:02.130Z,99.99
2022-08-01T04:36:34.628Z,99.99
2022-08-01T04:37:33.597Z,99.99
2022-08-01T04:38:33.584Z,99.99
2022-08-01T04:39:33.598Z,99.99
2022-08-01T04:40:34.567Z,99.99
2022-08-01T04:41:33.578Z,99.99
2022-08-01T04:42:33.729Z,99.99
2022-08-01T04:43:33.562Z,99.99
2022-08-01T04:44:33.540Z,99.99
2022-08-01T04:45:33.537Z,99.99
2022-08-01T04:46:33.576Z,99.99
2022-08-01T04:47:33.520Z,99.99
2022-08-01T04:48:33.549Z,99.99
2022-08-01T04:49:33.614Z,99.99
2022-08-01T04:50:34.512Z,99.99
2022-08-01T04:51:33.490Z,99.99
2022-08-01T04:52:34.486Z,99.99
2022-08-01T04:53:33.522Z,99.99
2022-08-01T04:54:33.470Z,99.99
2022-08-01T04:55:33.468Z,99.99
2022-08-01T04:56:33.453Z,99.76
2022-08-01T04:57:33.465Z,99.99
2022-08-01T04:58:33.463Z,99.99
2022-08-01T04:59:33.457Z,99.99
2022-08-01T05:00:33.455Z,99.35
2022-08-01T05:01:33.478Z,99.55
2022-08-01T05:02:33.401Z,99.99
2022-08-01T05:03:38.410Z,99.51
2022-08-01T05:04:35.395Z,99.71
2022-08-01T05:05:33.459Z,99.81
2022-08-01T05:06:33.375Z,99.91
2022-08-01T05:07:33.365Z,99.21
2022-08-01T05:08:34.377Z,99.41
2022-08-01T05:09:33.376Z,99.51
2022-08-01T05:10:33.341Z,98.40
2022-08-01T05:11:33.353Z,98.40
2022-08-01T05:12:33.359Z,98.20
2022-08-01T05:13:33.337Z,98.60
2022-08-01T05:14:33.338Z,98.36
2022-08-01T05:15:33.357Z,98.86
2022-08-01T05:16:33.312Z,98.76
2022-08-01T05:17:33.296Z,98.36
2022-08-01T05:18:33.309Z,98.25
2022-08-01T05:19:33.288Z,98.46
2022-08-01T05:20:33.289Z,98.46
2022-08-01T05:21:33.304Z,98.46
2022-08-01T05:22:33.287Z,98.36
2022-08-01T05:23:42.302Z,98.36
2022-08-01T05:24:34.254Z,98.46
2022-08-01T05:25:57.831Z,98.25
2022-08-01T05:26:34.251Z,98.05
2022-08-01T05:27:33.234Z,98.16
2022-08-01T05:28:33.221Z,98.11
2022-08-01T05:29:33.219Z,98.46
2022-08-01T05:30:33.209Z,97.75
2022-08-01T05:31:33.262Z,98.56
2022-08-01T05:32:33.176Z,98.16
2022-08-01T05:33:33.182Z,98.46
2022-08-01T05:34:33.161Z,98.25
2022-08-01T05:35:48.365Z,98.36
2022-08-01T05:36:34.176Z,99.16
2022-08-01T05:37:33.167Z,98.76
2022-08-01T05:38:33.166Z,98.96
2022-08-01T05:39:33.145Z,98.96
2022-08-01T05:40:33.137Z,98.86
2022-08-01T05:41:33.121Z,98.80
2022-08-01T05:42:33.162Z,98.91
2022-08-01T05:43:33.138Z,99.21
2022-08-01T05:44:33.120Z,99.36
2022-08-01T05:45:33.079Z,99.71
2022-08-01T05:46:33.080Z,99.71
2022-08-01T05:47:33.083Z,99.81
2022-08-01T05:48:33.076Z,99.99
2022-08-01T05:49:33.126Z,99.99
2022-08-01T05:50:33.180Z,99.71
2022-08-01T05:51:33.077Z,99.99
2022-08-01T05:52:33.031Z,99.99
2022-08-01T05:53:33.079Z,99.99
2022-08-01T05:54:33.018Z,99.99
2022-08-01T05:55:33.012Z,99.99
2022-08-01T05:56:32.994Z,99.99
2022-08-01T05:57:33.029Z,99.99
2022-08-01T05:58:33.029Z,99.99
2022-08-01T05:59:32.980Z,99.99
2022-08-01T06:00:32.963Z,99.99
2022-08-01T06:01:32.963Z,99.99
2022-08-01T06:02:33.017Z,99.99
2022-08-01T06:03:32.965Z,99.96
2022-08-01T06:04:32.948Z,99.62
2022-08-01T06:05:32.942Z,99.16
2022-08-01T06:06:32.947Z,99.56
2022-08-01T06:07:32.959Z,99.99
2022-08-01T06:08:32.923Z,98.91
2022-08-01T06:09:32.908Z,98.71
2022-08-01T06:10:32.995Z,99.62
2022-08-01T06:11:32.883Z,98.81
2022-08-01T06:12:35.623Z,99.07
2022-08-01T06:13:33.885Z,98.57
2022-08-01T06:14:33.870Z,98.66
2022-08-01T06:15:32.912Z,98.52
2022-08-01T06:16:32.970Z,98.52
2022-08-01T06:17:32.846Z,98.11
2022-08-01T06:18:32.831Z,97.92
2022-08-01T06:19:32.842Z,98.27
2022-08-01T06:20:32.840Z,97.92
2022-08-01T06:21:32.820Z,97.67
2022-08-01T06:22:32.796Z,97.27
2022-08-01T06:23:33.801Z,97.47
2022-08-01T06:24:32.815Z,97.57
2022-08-01T06:25:32.924Z,97.47
2022-08-01T06:26:32.811Z,97.77
2022-08-01T06:27:32.778Z,97.06
2022-08-01T06:28:32.759Z,96.47
2022-08-01T06:29:32.769Z,96.87
2022-08-01T06:30:32.754Z,96.87
2022-08-01T06:31:33.920Z,96.62
2022-08-01T06:32:33.769Z,96.02
2022-08-01T06:33:32.737Z,96.06
2022-08-01T06:34:32.731Z,95.92
2022-08-01T06:35:33.506Z,95.26
2022-08-01T06:36:32.742Z,95.42
2022-08-01T06:37:32.753Z,95.27
2022-08-01T06:38:32.702Z,94.17
2022-08-01T06:39:32.682Z,95.17
2022-08-01T06:40:32.671Z,94.68
2022-08-01T06:41:32.673Z,93.13
2022-08-01T06:42:32.695Z,91.33
2022-08-01T06:43:32.677Z,91.35
2022-08-01T06:44:32.645Z,90.45
2022-08-01T06:45:32.653Z,89.61
2022-08-01T06:46:32.700Z,89.51
2022-08-01T06:47:32.653Z,90.41
2022-08-01T06:48:32.633Z,90.00
2022-08-01T06:49:32.637Z,88.81
2022-08-01T06:50:32.595Z,90.11
2022-08-01T06:51:32.588Z,89.70
2022-08-01T06:52:32.606Z,89.81
2022-08-01T06:53:36.349Z,89.61
2022-08-01T06:54:33.565Z,89.11
2022-08-01T06:55:32.553Z,88.60
2022-08-01T06:56:32.552Z,88.90
2022-08-01T06:57:32.533Z,89.66
2022-08-01T06:58:32.562Z,89.96
2022-08-01T06:59:32.583Z,89.16
2022-08-01T07:00:32.579Z,89.02
2022-08-01T07:01:35.238Z,88.52
2022-08-01T07:02:32.507Z,87.92
2022-08-01T07:03:53.853Z,87.88
2022-08-01T07:04:33.506Z,87.18
2022-08-01T07:05:32.565Z,87.38
2022-08-01T07:06:32.478Z,85.94
2022-08-01T07:07:32.523Z,85.00
2022-08-01T07:08:32.474Z,85.21
2022-08-01T07:09:32.478Z,84.64
2022-08-01T07:10:32.486Z,82.06
2022-08-01T07:11:32.461Z,81.46
2022-08-01T07:12:32.489Z,80.36
2022-08-01T07:13:36.782Z,80.36
2022-08-01T07:14:33.423Z,80.47
2022-08-01T07:15:32.411Z,81.06
2022-08-01T07:16:32.413Z,80.63
2022-08-01T07:17:32.420Z,80.99
2022-08-01T07:18:32.394Z,77.29
2022-08-01T07:19:32.384Z,76.39
2022-08-01T07:20:37.987Z,76.10
2022-08-01T07:21:40.308Z,75.20
2022-08-01T07:22:33.373Z,75.97
2022-08-01T07:23:34.036Z,76.67
2022-08-01T07:24:32.363Z,77.10
2022-08-01T07:25:32.334Z,76.04
2022-08-01T07:26:32.348Z,77.17
2022-08-01T07:27:32.325Z,76.57
2022-08-01T07:28:32.354Z,76.72
2022-08-01T07:29:32.316Z,77.31
2022-08-01T07:30:32.300Z,77.47
2022-08-01T07:31:32.580Z,77.00
2022-08-01T07:32:33.483Z,75.81
2022-08-01T07:33:49.306Z,77.72
2022-08-01T07:34:33.281Z,75.18
2022-08-01T07:35:32.277Z,75.61
2022-08-01T07:36:32.254Z,75.25
2022-08-01T07:37:45.294Z,76.97
2022-08-01T07:38:33.233Z,77.41
2022-08-01T07:39:32.244Z,78.74
2022-08-01T07:40:32.256Z,78.28
2022-08-01T07:41:53.195Z,79.17
2022-08-01T07:42:33.239Z,80.51
2022-08-01T07:43:32.239Z,80.38
2022-08-01T07:44:32.191Z,82.02
2022-08-01T07:45:32.192Z,83.69
2022-08-01T07:46:32.288Z,84.13
2022-08-01T07:47:32.172Z,85.53
2022-08-01T07:48:32.182Z,83.77
2022-08-01T07:49:34.951Z,83.77
2022-08-01T07:50:34.295Z,83.13
2022-08-01T07:51:32.145Z,83.03
2022-08-01T07:52:32.160Z,83.53
2022-08-01T07:53:32.150Z,84.43
2022-08-01T07:54:33.880Z,83.73
2022-08-01T07:55:33.137Z,83.69
2022-08-01T07:56:32.208Z,82.50
2022-08-01T07:57:32.257Z,81.99
2022-08-01T07:58:32.102Z,82.09
2022-08-01T07:59:32.119Z,81.62
2022-08-01T08:00:32.113Z,80.35
2022-08-01T08:01:32.167Z,80.35
2022-08-01T08:02:32.175Z,80.48
2022-08-01T08:03:32.061Z,80.62
2022-08-01T08:04:32.046Z,79.88
2022-08-01T08:05:57.929Z,79.27
2022-08-01T08:06:33.054Z,78.97
2022-08-01T08:07:32.083Z,76.87
2022-08-01T08:08:32.014Z,77.45
2022-08-01T08:09:32.017Z,77.01
2022-08-01T08:10:32.997Z,75.59
2022-08-01T08:11:31.999Z,73.29
2022-08-01T08:12:32.071Z,71.64
2022-08-01T08:14:03.901Z,71.67
2022-08-01T08:14:32.478Z,70.94
2022-08-01T08:15:31.970Z,72.70
2022-08-01T08:16:31.978Z,73.96
2022-08-01T08:17:35.613Z,74.65
2022-08-01T08:18:31.953Z,75.35
2022-08-01T08:19:37.597Z,74.85
2022-08-01T08:20:32.956Z,72.80
2022-08-01T08:21:31.933Z,72.10
2022-08-01T08:22:31.935Z,71.77
2022-08-01T08:23:42.954Z,73.49
2022-08-01T08:24:33.446Z,70.81
2022-08-01T08:25:31.912Z,71.73
2022-08-01T08:26:31.895Z,68.86
2022-08-01T08:27:31.902Z,70.68
2022-08-01T08:28:31.905Z,73.76
2022-08-01T08:29:31.865Z,74.73
2022-08-01T08:30:31.864Z,75.65
2022-08-01T08:31:52.021Z,76.85
2022-08-01T08:32:32.859Z,77.55
2022-08-01T08:33:31.862Z,77.28
2022-08-01T08:34:31.880Z,76.85
2022-08-01T08:35:53.828Z,76.72
2022-08-01T08:36:32.834Z,76.35
2022-08-01T08:37:31.804Z,75.85
2022-08-01T08:38:32.805Z,76.62
2022-08-01T08:39:31.814Z,77.52
2022-08-01T08:40:32.821Z,76.86
2022-08-01T08:41:37.696Z,78.45
2022-08-01T08:42:32.777Z,77.36
2022-08-01T08:43:31.771Z,77.72
2022-08-01T08:44:32.519Z,76.13
2022-08-01T08:45:59.731Z,76.32
2022-08-01T08:46:32.760Z,75.23
2022-08-01T08:47:31.750Z,74.99
2022-08-01T08:48:31.730Z,75.53
2022-08-01T08:49:35.892Z,76.03
2022-08-01T08:50:31.731Z,75.76
2022-08-01T08:51:31.709Z,76.03
2022-08-01T08:52:31.737Z,76.03
2022-08-01T08:53:34.767Z,75.10
2022-08-01T08:54:31.895Z,75.10
2022-08-01T08:55:31.710Z,74.90
2022-08-01T08:56:31.699Z,75.79
2022-08-01T08:57:31.677Z,74.56
2022-08-01T08:58:32.008Z,70.32
2022-08-01T08:59:31.655Z,69.36
2022-08-01T09:00:31.666Z,68.07
2022-08-01T09:01:31.642Z,66.29
2022-08-01T09:02:31.624Z,65.44
2022-08-01T09:03:31.721Z,66.39
2022-08-01T09:04:31.628Z,67.35
2022-08-01T09:05:39.324Z,66.49
2022-08-01T09:06:32.663Z,69.20
2022-08-01T09:07:32.093Z,69.03
2022-08-01T09:08:31.606Z,69.65
2022-08-01T09:09:31.577Z,71.91
2022-08-01T09:10:31.565Z,72.47
2022-08-01T09:11:31.573Z,73.57
2022-08-01T09:12:31.623Z,73.93
2022-08-01T09:13:31.554Z,73.14
2022-08-01T09:14:31.614Z,70.75
2022-08-01T09:15:33.846Z,68.76
2022-08-01T09:16:31.537Z,66.32
2022-08-01T09:17:31.548Z,64.18
2022-08-01T09:18:31.517Z,64.15
2022-08-01T09:19:39.652Z,64.08
2022-08-01T09:20:32.496Z,64.35
2022-08-01T09:21:31.485Z,63.82
2022-08-01T09:22:31.482Z,64.12
2022-08-01T09:23:31.500Z,63.92
2022-08-01T09:24:31.495Z,62.94
2022-08-01T09:25:31.478Z,62.35
2022-08-01T09:26:32.465Z,61.04
2022-08-01T09:27:31.464Z,61.26
2022-08-01T09:28:31.459Z,61.80
2022-08-01T09:29:37.461Z,61.18
2022-08-01T09:30:32.478Z,60.26
2022-08-01T09:31:38.460Z,60.09
2022-08-01T09:32:36.503Z,61.80
2022-08-01T09:33:36.872Z,61.19
2022-08-01T09:34:32.422Z,62.18
2022-08-01T09:35:36.002Z,61.00
2022-08-01T09:36:33.411Z,60.31
2022-08-01T09:37:37.212Z,60.29
2022-08-01T09:38:32.404Z,59.70
2022-08-01T09:39:31.370Z,58.75
2022-08-01T09:40:31.389Z,59.92
2022-08-01T09:41:39.991Z,59.53
2022-08-01T09:42:32.368Z,59.57
2022-08-01T09:43:31.933Z,59.22
2022-08-01T09:44:42.297Z,57.36
2022-08-01T09:45:41.795Z,55.91
2022-08-01T09:46:32.357Z,56.68
2022-08-01T09:47:31.322Z,59.17
2022-08-01T09:48:32.084Z,60.84
2022-08-01T09:49:50.711Z,62.77
2022-08-01T09:50:32.306Z,63.30
2022-08-01T09:51:59.202Z,64.45
2022-08-01T09:52:32.283Z,63.46
2022-08-01T09:53:31.275Z,64.81
2022-08-01T09:54:32.318Z,66.49
2022-08-01T09:55:31.306Z,67.90
2022-08-01T09:56:31.283Z,68.24
2022-08-01T09:57:31.250Z,67.90
2022-08-01T09:58:31.258Z,67.54
2022-08-01T09:59:40.981Z,68.24
2022-08-01T10:00:44.187Z,68.86
2022-08-01T10:01:36.813Z,68.83
2022-08-01T10:02:31.249Z,69.76
2022-08-01T10:03:31.286Z,70.72
2022-08-01T10:04:31.224Z,71.31
2022-08-01T10:05:31.281Z,72.20
2022-08-01T10:06:32.188Z,72.11
2022-08-01T10:07:43.659Z,71.15
2022-08-01T10:08:32.180Z,71.38
2022-08-01T10:09:39.947Z,72.38
2022-08-01T10:10:33.068Z,71.88
2022-08-01T10:11:36.226Z,70.39
2022-08-01T10:12:32.154Z,68.10
2022-08-01T10:13:36.728Z,67.84
2022-08-01T10:14:32.143Z,66.03
2022-08-01T10:15:37.322Z,62.48
2022-08-01T10:16:32.124Z,62.08
2022-08-01T10:17:50.810Z,61.85
2022-08-01T10:18:33.061Z,62.47
2022-08-01T10:19:31.145Z,62.37
2022-08-01T10:20:32.216Z,62.04
2022-08-01T10:21:56.407Z,61.65
2022-08-01T10:22:32.089Z,62.01
2022-08-01T10:23:40.237Z,61.13
2022-08-01T10:24:33.401Z,62.74
2022-08-01T10:25:41.793Z,62.71
2022-08-01T10:26:32.144Z,61.29
2022-08-01T10:27:38.077Z,60.74
2022-08-01T10:28:32.063Z,59.53
2022-08-01T10:29:59.139Z,60.22
2022-08-01T10:30:32.070Z,61.11
2022-08-01T10:31:31.165Z,59.38
2022-08-01T10:32:31.050Z,58.61
2022-08-01T10:33:51.822Z,57.97
2022-08-01T10:34:32.003Z,57.97
2022-08-01T10:35:45.706Z,57.68
2022-08-01T10:36:32.027Z,56.28
2022-08-01T10:37:31.041Z,56.28
2022-08-01T10:38:30.962Z,56.83
2022-08-01T10:39:30.972Z,57.18
2022-08-01T10:40:31.414Z,57.31
2022-08-01T10:41:33.098Z,58.46
2022-08-01T10:42:30.951Z,57.25
2022-08-01T10:43:30.985Z,56.79
2022-08-01T10:44:30.923Z,56.52
2022-08-01T10:45:30.930Z,57.14
2022-08-01T10:46:31.581Z,57.14
2022-08-01T10:47:50.825Z,57.86
2022-08-01T10:48:31.919Z,58.37
2022-08-01T10:49:31.712Z,58.67
2022-08-01T10:50:30.914Z,56.81
2022-08-01T10:51:51.500Z,56.59
2022-08-01T10:52:34.458Z,55.68
2022-08-01T10:53:42.571Z,55.82
2022-08-01T10:54:31.850Z,55.16
2022-08-01T10:55:30.888Z,55.16
2022-08-01T10:56:30.866Z,54.99
2022-08-01T10:57:30.845Z,55.24
2022-08-01T10:58:30.867Z,56.57
2022-08-01T10:59:49.788Z,57.81
2022-08-01T11:00:31.838Z,58.92
2022-08-01T11:01:31.472Z,58.23
2022-08-01T11:02:32.115Z,58.80
2022-08-01T11:03:55.667Z,58.50
2022-08-01T11:04:32.822Z,58.11
2022-08-01T11:05:30.818Z,58.01
2022-08-01T11:06:30.784Z,57.81
2022-08-01T11:07:34.956Z,56.46
2022-08-01T11:08:30.764Z,56.73
2022-08-01T11:09:37.002Z,55.74
2022-08-01T11:10:31.800Z,55.29
2022-08-01T11:11:37.378Z,53.86
2022-08-01T11:12:31.878Z,55.95
2022-08-01T11:13:32.381Z,54.03
2022-08-01T11:14:54.770Z,55.11
2022-08-01T11:15:32.728Z,53.78
2022-08-01T11:16:30.717Z,51.52
2022-08-01T11:17:31.468Z,53.09
2022-08-01T11:18:31.715Z,52.87
2022-08-01T11:19:30.723Z,52.40
2022-08-01T11:20:30.671Z,51.79
2022-08-01T11:21:59.415Z,51.98
2022-08-01T11:22:31.717Z,50.76
2022-08-01T11:23:35.974Z,50.93
2022-08-01T11:24:31.690Z,50.83
2022-08-01T11:26:06.409Z,49.33
2022-08-01T11:26:31.664Z,49.73
2022-08-01T11:27:31.491Z,49.68
2022-08-01T11:28:34.800Z,49.11
2022-08-01T11:29:32.612Z,51.46
2022-08-01T11:30:30.621Z,50.63
2022-08-01T11:31:30.627Z,51.72
2022-08-01T11:32:42.430Z,53.46
2022-08-01T11:33:31.598Z,53.61
2022-08-01T11:34:30.608Z,55.01
2022-08-01T11:35:30.613Z,55.53
2022-08-01T11:36:55.849Z,55.76
2022-08-01T11:37:32.614Z,56.57
2022-08-01T11:38:30.584Z,56.90
2022-08-01T11:39:31.280Z,57.74
2022-08-01T11:40:30.551Z,58.14
2022-08-01T11:41:38.491Z,57.32
2022-08-01T11:42:31.575Z,57.05
2022-08-01T11:43:30.535Z,57.42
2022-08-01T11:44:30.975Z,57.12
2022-08-01T11:45:30.544Z,57.19
2022-08-01T11:46:30.515Z,56.57
2022-08-01T11:47:30.569Z,56.35
2022-08-01T11:48:32.117Z,55.01
2022-08-01T11:49:30.517Z,53.24
2022-08-01T11:50:30.481Z,55.04
2022-08-01T11:51:30.482Z,54.82
2022-08-01T11:52:30.669Z,54.00
2022-08-01T11:53:30.474Z,53.70
2022-08-01T11:54:35.583Z,53.93
2022-08-01T11:55:32.176Z,54.57
2022-08-01T11:56:30.451Z,55.26
2022-08-01T11:57:34.637Z,55.07
2022-08-01T11:58:31.598Z,55.66
2022-08-01T11:59:37.197Z,54.70
2022-08-01T12:00:31.422Z,55.41
2022-08-01T12:01:30.463Z,56.40
2022-08-01T12:02:31.104Z,55.68
2022-08-01T12:03:33.670Z,55.29
2022-08-01T12:04:30.379Z,55.88
2022-08-01T12:05:31.439Z,55.19
2022-08-01T12:06:30.390Z,54.93
2022-08-01T12:07:30.374Z,55.35
2022-08-01T12:08:30.361Z,56.26
2022-08-01T12:09:30.351Z,56.53
2022-08-01T12:10:30.340Z,55.64
2022-08-01T12:11:37.074Z,55.74
2022-08-01T12:12:31.341Z,56.04
2022-08-01T12:13:30.350Z,56.23
2022-08-01T12:14:30.345Z,55.62
2022-08-01T12:15:30.329Z,55.54
2022-08-01T12:16:33.197Z,56.23
2022-08-01T12:17:30.306Z,56.27
2022-08-01T12:18:30.311Z,55.26
2022-08-01T12:19:30.288Z,55.04
2022-08-01T12:20:31.147Z,54.52
2022-08-01T12:21:32.165Z,54.22
2022-08-01T12:22:30.281Z,54.03
2022-08-01T12:23:30.291Z,53.74
2022-08-01T12:24:30.265Z,53.12
2022-08-01T12:25:30.257Z,54.39
2022-08-01T12:26:32.238Z,51.22
2022-08-01T12:27:30.239Z,50.68
2022-08-01T12:28:30.256Z,49.60
2022-08-01T12:29:30.224Z,50.98
2022-08-01T12:30:30.220Z,49.73
2022-08-01T12:31:30.259Z,51.10
2022-08-01T12:32:35.675Z,52.23
2022-08-01T12:33:31.184Z,53.64
2022-08-01T12:34:30.190Z,52.87
2022-08-01T12:35:30.200Z,53.76
2022-08-01T12:36:30.169Z,53.59
2022-08-01T12:37:30.179Z,53.91
2022-08-01T12:38:30.184Z,54.23
2022-08-01T12:39:30.183Z,53.61
2022-08-01T12:40:30.207Z,53.49
2022-08-01T12:41:30.150Z,53.66
2022-08-01T12:42:30.121Z,53.96
2022-08-01T12:43:30.127Z,51.76
2022-08-01T12:44:30.116Z,51.86
2022-08-01T12:45:30.132Z,50.95
2022-08-01T12:46:30.117Z,49.82
2022-08-01T12:47:30.117Z,49.41
2022-08-01T12:48:31.104Z,49.55
2022-08-01T12:49:30.177Z,48.74
2022-08-01T12:50:30.111Z,49.21
2022-08-01T12:51:30.061Z,49.13
2022-08-01T12:52:30.082Z,50.14
2022-08-01T12:53:40.862Z,51.00
2022-08-01T12:54:31.047Z,49.13
2022-08-01T12:55:34.154Z,51.15
2022-08-01T12:56:30.057Z,49.90
2022-08-01T12:57:30.106Z,50.09
2022-08-01T12:58:30.019Z,49.70
2022-08-01T12:59:30.015Z,49.38
2022-08-01T13:00:30.003Z,49.68
2022-08-01T13:01:30.075Z,49.95
2022-08-01T13:02:30.008Z,49.53
2022-08-01T13:03:30.005Z,49.21
2022-08-01T13:04:29.972Z,49.04
2022-08-01T13:05:29.972Z,49.53
2022-08-01T13:06:29.962Z,49.75
2022-08-01T13:07:32.645Z,49.68
2022-08-01T13:08:30.962Z,49.38
2022-08-01T13:09:29.953Z,49.90
2022-08-01T13:10:29.935Z,50.73
2022-08-01T13:11:29.927Z,51.03
2022-08-01T13:12:29.940Z,51.42
2022-08-01T13:13:29.940Z,50.93
2022-08-01T13:14:29.937Z,51.12
2022-08-01T13:15:29.884Z,51.10
2022-08-01T13:16:55.187Z,49.68
2022-08-01T13:17:31.920Z,48.77
2022-08-01T13:18:29.879Z,48.55
2022-08-01T13:19:29.907Z,47.58
2022-08-01T13:20:29.879Z,48.35
2022-08-01T13:21:29.866Z,47.71
2022-08-01T13:22:30.862Z,47.13
2022-08-01T13:24:03.605Z,47.05
2022-08-01T13:24:30.853Z,47.64